Time;durP1;ratioP1;P1;durP2;ratioP2;P2;SDS_P1;SDS_P2;PMS_P1;PMS_P2;Temp;Humidity;BMP_temperature;BMP_pressure;BME280_temperature;BME280_humidity;BME280_pressure;Samples;Min_cycle;Max_cycle;Signal;HPM_P1;HPM_P2
2022/04/06 00:00:26;;;;;;;22.00;14.27;;;5.30;99.90;;;;;;5091079;28;20387;-82
2022/04/06 00:02:53;;;;;;;19.93;13.97;;;5.40;99.90;;;;;;5075922;28;20781;-82
2022/04/06 00:05:20;;;;;;;21.93;15.10;;;5.40;99.90;;;;;;5090748;28;20355;-82
2022/04/06 00:07:48;;;;;;;18.57;12.90;;;5.40;99.90;;;;;;5090351;28;20548;-82
2022/04/06 00:10:15;;;;;;;21.07;14.93;;;5.50;99.90;;;;;;5082938;28;20231;-82
2022/04/06 00:12:43;;;;;;;21.03;15.07;;;5.50;99.90;;;;;;5076627;28;20217;-82
2022/04/06 00:15:12;;;;;;;21.77;14.70;;;5.60;99.90;;;;;;5089799;28;20228;-82
2022/04/06 00:17:40;;;;;;;23.20;14.97;;;5.60;99.90;;;;;;5090463;28;20233;-82
2022/04/06 00:20:08;;;;;;;20.00;13.87;;;5.60;99.90;;;;;;5090371;28;20233;-83
2022/04/06 00:22:35;;;;;;;21.07;14.20;;;5.70;99.90;;;;;;5086795;28;20222;-83
2022/04/06 00:25:03;;;;;;;17.73;13.27;;;5.80;99.90;;;;;;5072718;28;20231;-83
2022/04/06 00:27:30;;;;;;;12.83;10.47;;;5.90;99.90;;;;;;5075149;28;20630;-83
2022/04/06 00:29:59;;;;;;;14.93;10.67;;;5.90;99.90;;;;;;5074924;28;20649;-83
2022/04/06 00:32:26;;;;;;;9.63;8.03;;;6.00;99.90;;;;;;5072748;28;20234;-84
2022/04/06 00:37:38;;;;;;;8.17;6.80;;;6.20;99.90;;;;;;5068074;28;20599;-83
2022/04/06 00:40:08;;;;;;;7.83;6.17;;;6.30;99.90;;;;;;5082666;28;20221;-83
2022/04/06 00:42:35;;;;;;;6.87;5.70;;;6.40;99.90;;;;;;5068037;28;20218;-84
2022/04/06 00:45:02;;;;;;;6.53;5.83;;;6.50;99.90;;;;;;5068466;28;20993;-84
2022/04/06 00:47:28;;;;;;;7.40;6.00;;;6.60;99.90;;;;;;5072595;28;20330;-83
2022/04/06 00:49:55;;;;;;;7.57;6.10;;;6.70;99.90;;;;;;5075600;28;20225;-83
2022/04/06 00:52:22;;;;;;;6.60;5.77;;;6.80;99.90;;;;;;5089012;28;20690;-82
2022/04/06 00:54:49;;;;;;;6.70;5.33;;;6.90;99.90;;;;;;5071944;28;20650;-83
2022/04/06 00:57:19;;;;;;;6.70;5.63;;;6.90;99.90;;;;;;5071441;28;20228;-84
2022/04/06 00:59:47;;;;;;;7.03;5.10;;;7.00;99.90;;;;;;5071200;28;20253;-82
2022/04/06 01:02:14;;;;;;;6.03;5.43;;;7.10;99.90;;;;;;5071258;28;20271;-82
2022/04/06 01:04:41;;;;;;;5.90;4.97;;;7.10;99.90;;;;;;5071534;28;20251;-83
2022/04/06 01:07:08;;;;;;;5.90;5.07;;;7.20;99.90;;;;;;5090768;28;20230;-83
2022/04/06 01:09:36;;;;;;;6.73;5.10;;;7.20;99.90;;;;;;5073317;28;20237;-82
2022/04/06 01:12:03;;;;;;;5.20;4.70;;;7.20;99.90;;;;;;5081551;28;20232;-83
2022/04/06 01:14:31;;;;;;;8.00;5.50;;;7.30;99.90;;;;;;5088190;28;20242;-83
2022/04/06 01:16:59;;;;;;;5.70;4.87;;;7.30;99.90;;;;;;5070494;28;20298;-83
2022/04/06 01:19:31;;;;;;;6.27;4.60;;;7.30;99.90;;;;;;5084622;28;20227;-83
2022/04/06 01:21:58;;;;;;;5.53;5.00;;;7.40;99.90;;;;;;5072324;28;20309;-83
2022/04/06 01:24:27;;;;;;;5.77;4.40;;;7.40;99.90;;;;;;5068473;28;20320;-83
2022/04/06 01:26:54;;;;;;;6.07;4.60;;;7.40;99.90;;;;;;5078863;28;20246;-82
2022/04/06 01:29:21;;;;;;;7.33;4.27;;;7.40;99.90;;;;;;5067704;28;20856;-84
2022/04/06 01:31:47;;;;;;;5.00;4.43;;;7.40;99.90;;;;;;5087640;28;20227;-84
2022/04/06 01:34:14;;;;;;;4.77;4.13;;;7.40;99.90;;;;;;5077633;28;20230;-83
2022/04/06 01:36:41;;;;;;;4.43;4.03;;;7.40;99.90;;;;;;5089186;28;20230;-84
2022/04/06 01:39:08;;;;;;;4.77;3.97;;;7.50;99.90;;;;;;5073718;28;20287;-81
2022/04/06 01:41:37;;;;;;;4.30;3.87;;;7.50;99.90;;;;;;5088872;28;20261;-81
2022/04/06 01:44:05;;;;;;;4.27;3.63;;;7.50;99.90;;;;;;5077474;28;20223;-80
2022/04/06 01:46:32;;;;;;;4.63;3.70;;;7.50;99.90;;;;;;5075802;28;20237;-81
2022/04/06 01:54:33;;;;;;;4.37;3.63;;;7.50;99.90;;;;;;5076121;28;20234;-82
2022/04/06 01:57:01;;;;;;;4.03;3.53;;;7.50;99.90;;;;;;5066347;28;20595;-82
2022/04/06 01:59:28;;;;;;;3.73;3.40;;;7.50;99.90;;;;;;5072055;28;20250;-82
2022/04/06 02:01:56;;;;;;;4.87;3.70;;;7.50;99.90;;;;;;5065199;28;20890;-82
2022/04/06 02:04:23;;;;;;;4.17;3.40;;;7.50;99.90;;;;;;5075412;28;20315;-83
2022/04/06 02:06:49;;;;;;;4.30;3.67;;;7.50;99.90;;;;;;5069299;28;20587;-83
2022/04/06 02:09:17;;;;;;;4.10;3.40;;;7.50;99.90;;;;;;5066154;28;20226;-82
2022/04/06 02:11:45;;;;;;;4.80;3.80;;;7.50;99.90;;;;;;5087402;28;20254;-84
2022/04/06 02:14:13;;;;;;;3.60;3.07;;;7.50;99.90;;;;;;5073803;28;20243;-81
2022/04/06 02:16:40;;;;;;;4.87;3.20;;;7.50;99.90;;;;;;5089864;28;20751;-81
2022/04/06 02:19:07;;;;;;;3.67;2.93;;;7.50;99.90;;;;;;5073403;28;20334;-85
2022/04/06 02:21:34;;;;;;;4.50;3.50;;;7.50;99.90;;;;;;5073238;28;20295;-84
2022/04/06 02:24:01;;;;;;;3.53;2.90;;;7.50;99.90;;;;;;5062591;28;20228;-83
2022/04/06 02:26:28;;;;;;;4.13;2.77;;;7.50;99.90;;;;;;5072242;28;20242;-83
2022/04/06 02:28:55;;;;;;;4.37;2.83;;;7.50;99.90;;;;;;5068020;28;20219;-83
2022/04/06 02:31:23;;;;;;;2.60;2.40;;;7.50;99.90;;;;;;5075228;28;20294;-83
2022/04/06 02:33:50;;;;;;;3.40;2.83;;;7.50;99.90;;;;;;5069408;28;20663;-84
2022/04/06 02:36:17;;;;;;;2.93;2.60;;;7.50;99.90;;;;;;5087410;28;20932;-84
2022/04/06 02:38:44;;;;;;;4.20;2.80;;;7.50;99.90;;;;;;5079566;28;20720;-83
2022/04/06 02:41:11;;;;;;;3.30;3.00;;;7.50;99.90;;;;;;5086022;28;20695;-85
2022/04/06 02:43:38;;;;;;;3.40;2.90;;;7.50;99.90;;;;;;5060940;28;20235;-85
2022/04/06 02:46:05;;;;;;;3.73;3.33;;;7.40;99.90;;;;;;5083940;28;20234;-85
2022/04/06 02:48:34;;;;;;;3.33;2.97;;;7.50;99.90;;;;;;5083679;28;20666;-85
2022/04/06 02:51:00;;;;;;;4.27;3.00;;;7.40;99.90;;;;;;5085155;28;20270;-82
2022/04/06 02:53:28;;;;;;;3.70;3.20;;;7.40;99.90;;;;;;5086196;28;21653;-82
2022/04/06 02:55:54;;;;;;;5.03;3.87;;;7.40;99.90;;;;;;5088202;28;20782;-84
2022/04/06 02:58:21;;;;;;;4.50;3.50;;;7.40;99.90;;;;;;5069620;28;20412;-84
2022/04/06 03:00:48;;;;;;;6.87;4.10;;;7.40;99.90;;;;;;5074895;28;20287;-84
2022/04/06 03:03:14;;;;;;;6.63;3.80;;;7.40;99.90;;;;;;5085886;28;20830;-84
2022/04/06 03:05:43;;;;;;;6.10;4.10;;;7.40;99.90;;;;;;5079486;28;20276;-85
2022/04/06 03:08:10;;;;;;;6.67;4.30;;;7.40;99.90;;;;;;5083445;28;20310;-85
2022/04/06 03:10:37;;;;;;;6.83;5.50;;;7.40;99.90;;;;;;5082117;28;20268;-85
2022/04/06 03:13:04;;;;;;;5.87;5.13;;;7.40;99.90;;;;;;5069121;28;20936;-84
2022/04/06 03:15:31;;;;;;;7.77;5.33;;;7.40;99.90;;;;;;5070226;28;20280;-86
2022/04/06 03:17:58;;;;;;;9.07;5.70;;;7.40;99.90;;;;;;5084059;28;20231;-86
2022/04/06 03:20:25;;;;;;;8.20;6.60;;;7.40;99.90;;;;;;5061038;28;20714;-86
2022/04/06 03:22:53;;;;;;;6.97;6.27;;;7.40;99.90;;;;;;5068658;28;20231;-85
2022/04/06 03:25:20;;;;;;;8.33;7.03;;;7.40;99.90;;;;;;5084055;28;20222;-84
2022/04/06 03:27:48;;;;;;;10.20;7.00;;;7.40;99.90;;;;;;5086784;28;20216;-84
2022/04/06 03:30:14;;;;;;;9.47;7.60;;;7.50;99.90;;;;;;5086301;28;20216;-84
2022/04/06 03:32:42;;;;;;;11.37;7.97;;;7.40;99.90;;;;;;5071543;28;20248;-84
2022/04/06 03:35:10;;;;;;;9.60;8.10;;;7.40;99.90;;;;;;5079735;28;20215;-83
2022/04/06 03:37:36;;;;;;;11.73;7.87;;;7.40;99.90;;;;;;5089019;28;20278;-85
2022/04/06 03:40:06;;;;;;;9.30;7.47;;;7.40;99.90;;;;;;5073681;28;20535;-84
2022/04/06 03:42:35;;;;;;;12.57;8.30;;;7.40;99.90;;;;;;5062317;28;20699;-82
2022/04/06 03:45:06;;;;;;;13.33;8.40;;;7.40;99.90;;;;;;5067070;28;20243;-82
2022/04/06 03:47:35;;;;;;;14.30;9.03;;;7.40;99.90;;;;;;5072182;28;20231;-82
2022/04/06 03:50:03;;;;;;;12.30;8.70;;;7.40;99.90;;;;;;5068144;28;20219;-82
2022/04/06 03:52:29;;;;;;;13.57;8.33;;;7.30;99.90;;;;;;5087621;28;20227;-81
2022/04/06 03:54:56;;;;;;;13.43;8.93;;;7.40;99.90;;;;;;5086937;28;20291;-85
2022/04/06 03:57:25;;;;;;;10.67;8.30;;;7.50;99.90;;;;;;5074684;28;20262;-83
2022/04/06 03:59:52;;;;;;;15.60;9.03;;;7.50;99.90;;;;;;5072682;28;21635;-82
2022/04/06 04:02:19;;;;;;;15.60;9.50;;;7.50;99.90;;;;;;5064947;28;21151;-82
2022/04/06 04:04:46;;;;;;;12.93;9.80;;;7.50;99.90;;;;;;5087184;28;20590;-82
2022/04/06 04:07:13;;;;;;;17.57;9.53;;;7.50;99.90;;;;;;5087645;28;20242;-82
2022/04/06 04:09:39;;;;;;;15.20;9.43;;;7.50;99.90;;;;;;5087175;28;20247;-83
2022/04/06 04:12:07;;;;;;;15.90;10.30;;;7.50;99.90;;;;;;5085707;28;20239;-82
2022/04/06 04:14:36;;;;;;;16.63;10.87;;;7.50;99.90;;;;;;5068128;28;20240;-82
2022/04/06 04:17:02;;;;;;;15.37;10.00;;;7.50;99.90;;;;;;5073258;28;20288;-83
2022/04/06 04:19:29;;;;;;;18.43;10.97;;;7.50;99.90;;;;;;5068750;28;20231;-82
2022/04/06 04:21:58;;;;;;;16.43;11.30;;;7.50;99.90;;;;;;5068453;28;20334;-81
2022/04/06 04:24:24;;;;;;;18.77;12.33;;;7.50;99.90;;;;;;5073474;28;20229;-81
2022/04/06 04:26:51;;;;;;;18.07;12.13;;;7.50;99.90;;;;;;5090249;28;20238;-82
2022/04/06 04:29:18;;;;;;;24.23;12.83;;;7.50;99.90;;;;;;5089817;28;20242;-81
2022/04/06 04:31:47;;;;;;;17.20;12.43;;;7.50;99.90;;;;;;5080298;28;20255;-81
2022/04/06 04:34:14;;;;;;;35.33;14.77;;;7.50;99.90;;;;;;5080955;28;20696;-82
2022/04/06 04:36:41;;;;;;;29.97;14.80;;;7.50;99.90;;;;;;5086369;28;20751;-83
2022/04/06 04:39:08;;;;;;;40.90;15.50;;;7.50;99.90;;;;;;5071506;28;20907;-82
2022/04/06 04:41:35;;;;;;;28.30;13.80;;;7.60;99.90;;;;;;5070794;28;20745;-83
2022/04/06 04:44:02;;;;;;;26.13;14.33;;;7.60;99.90;;;;;;5088934;28;20227;-82
2022/04/06 04:46:29;;;;;;;21.00;14.13;;;7.60;99.90;;;;;;5089298;28;20482;-82
2022/04/06 04:48:57;;;;;;;29.57;15.47;;;7.60;99.90;;;;;;5071620;28;20230;-82
2022/04/06 04:51:24;;;;;;;28.00;16.50;;;7.60;99.90;;;;;;5090562;28;20231;-81
2022/04/06 04:53:50;;;;;;;35.37;17.33;;;7.60;99.90;;;;;;5075069;28;20743;-81
2022/04/06 04:56:18;;;;;;;26.53;17.20;;;7.60;99.90;;;;;;5089458;28;20232;-80
2022/04/06 04:58:45;;;;;;;30.03;17.17;;;7.60;99.90;;;;;;5089762;28;20224;-80
2022/04/06 05:01:11;;;;;;;29.87;18.47;;;7.60;99.90;;;;;;5087263;28;20224;-81
2022/04/06 05:03:38;;;;;;;31.93;19.20;;;7.60;99.90;;;;;;5088832;28;20743;-80
2022/04/06 05:06:07;;;;;;;31.93;21.07;;;7.60;99.90;;;;;;5071919;28;20556;-81
2022/04/06 05:08:34;;;;;;;31.27;20.87;;;7.60;99.90;;;;;;5088965;28;20280;-81
2022/04/06 05:11:01;;;;;;;27.53;20.23;;;7.60;99.90;;;;;;5071208;28;20587;-82
2022/04/06 05:13:28;;;;;;;29.03;20.67;;;7.60;99.90;;;;;;5089292;28;20231;-82
2022/04/06 05:15:54;;;;;;;29.43;20.63;;;7.60;99.90;;;;;;5069103;28;20220;-83
2022/04/06 05:18:21;;;;;;;30.80;21.37;;;7.60;99.90;;;;;;5068307;28;20235;-83
2022/04/06 05:20:48;;;;;;;26.97;20.37;;;7.60;99.90;;;;;;5089177;28;20224;-83
2022/04/06 05:23:16;;;;;;;27.50;19.97;;;7.60;99.90;;;;;;5071408;28;20731;-82
2022/04/06 05:25:43;;;;;;;32.33;21.23;;;7.60;99.90;;;;;;5073580;28;20251;-83
2022/04/06 05:28:10;;;;;;;29.03;20.80;;;7.60;99.90;;;;;;5092785;28;20396;-83
2022/04/06 05:30:38;;;;;;;28.90;19.73;;;7.60;99.90;;;;;;5071804;28;20231;-83
2022/04/06 05:33:05;;;;;;;30.53;21.03;;;7.60;99.90;;;;;;5089375;28;20227;-82
2022/04/06 05:35:32;;;;;;;35.10;21.87;;;7.60;99.90;;;;;;5072408;28;20327;-82
2022/04/06 05:37:59;;;;;;;29.30;21.00;;;7.70;99.90;;;;;;5069010;28;20761;-82
2022/04/06 05:40:27;;;;;;;32.03;21.20;;;7.70;99.90;;;;;;5072056;28;20231;-82
2022/04/06 05:42:54;;;;;;;27.47;21.03;;;7.70;99.90;;;;;;5073581;28;20232;-82
2022/04/06 05:45:21;;;;;;;30.53;21.10;;;7.70;99.90;;;;;;5069928;28;20225;-82
2022/04/06 05:47:48;;;;;;;30.83;20.80;;;7.70;99.90;;;;;;5089691;28;20231;-82
2022/04/06 05:50:15;;;;;;;29.87;21.17;;;7.70;99.90;;;;;;5088309;28;20238;-82
2022/04/06 05:52:42;;;;;;;32.23;20.90;;;7.70;99.90;;;;;;5087992;28;20235;-82
2022/04/06 05:55:10;;;;;;;29.63;20.77;;;7.70;99.90;;;;;;5088578;28;20216;-82
2022/04/06 05:57:38;;;;;;;30.47;19.50;;;7.70;99.90;;;;;;5071801;28;20251;-82
2022/04/06 06:00:08;;;;;;;26.87;19.33;;;7.70;99.90;;;;;;5089201;28;20228;-82
2022/04/06 06:02:38;;;;;;;29.33;18.43;;;7.80;99.90;;;;;;5085166;28;20974;-82
2022/04/06 06:05:06;;;;;;;28.57;19.20;;;7.80;99.90;;;;;;5089173;28;20256;-82
2022/04/06 06:07:32;;;;;;;30.77;18.83;;;7.80;99.90;;;;;;5070251;28;20228;-82
2022/04/06 06:09:59;;;;;;;28.87;18.27;;;7.80;99.90;;;;;;5090088;28;20219;-82
2022/04/06 06:12:26;;;;;;;27.00;16.93;;;7.90;99.90;;;;;;5070147;28;20229;-84
2022/04/06 06:14:54;;;;;;;24.17;16.80;;;7.90;99.90;;;;;;5075308;28;20320;-82
2022/04/06 06:17:21;;;;;;;23.20;16.13;;;7.90;99.90;;;;;;5089586;28;21016;-83
2022/04/06 06:19:47;;;;;;;26.70;15.63;;;7.90;99.90;;;;;;5089612;28;20220;-82
2022/04/06 06:22:14;;;;;;;23.27;15.00;;;7.90;99.90;;;;;;5090986;28;20320;-83
2022/04/06 06:24:41;;;;;;;24.83;14.93;;;7.90;99.90;;;;;;5074809;28;20236;-82
2022/04/06 06:27:07;;;;;;;19.13;13.93;;;8.00;99.90;;;;;;5070742;28;20219;-83
2022/04/06 06:29:34;;;;;;;23.53;14.30;;;8.00;99.90;;;;;;5087589;28;20495;-83
2022/04/06 06:32:02;;;;;;;24.67;14.60;;;8.00;99.90;;;;;;5075349;28;20227;-82
2022/04/06 06:34:29;;;;;;;25.43;14.03;;;8.00;99.90;;;;;;5088867;28;20228;-82
2022/04/06 06:36:56;;;;;;;27.53;12.93;;;8.00;99.90;;;;;;5089905;28;20291;-83
2022/04/06 06:39:22;;;;;;;23.97;13.53;;;8.00;99.90;;;;;;5090179;28;20299;-83
2022/04/06 06:41:49;;;;;;;23.53;13.30;;;8.00;99.90;;;;;;5089398;28;20229;-83
2022/04/06 06:44:16;;;;;;;20.20;13.17;;;8.10;99.90;;;;;;5068840;28;20274;-83
2022/04/06 06:46:42;;;;;;;22.90;13.40;;;8.10;99.90;;;;;;5073117;28;20232;-83
2022/04/06 06:49:11;;;;;;;25.80;12.93;;;8.00;99.90;;;;;;5069730;28;20228;-84
2022/04/06 06:51:39;;;;;;;23.53;12.00;;;8.10;99.90;;;;;;5069479;28;20277;-84
2022/04/06 06:54:06;;;;;;;28.13;12.93;;;8.10;99.90;;;;;;5071528;28;20745;-84
2022/04/06 06:56:33;;;;;;;18.43;12.03;;;8.10;99.90;;;;;;5071471;28;20282;-84
2022/04/06 06:59:00;;;;;;;21.77;12.50;;;8.10;99.90;;;;;;5088659;28;20225;-84
2022/04/06 07:01:27;;;;;;;21.73;12.33;;;8.10;99.90;;;;;;5069562;28;20235;-84
2022/04/06 07:03:53;;;;;;;19.53;12.10;;;8.20;99.90;;;;;;5087451;28;20281;-85
2022/04/06 07:06:22;;;;;;;19.87;12.00;;;8.10;99.90;;;;;;5067997;28;20224;-84
2022/04/06 07:08:48;;;;;;;23.97;12.27;;;8.10;99.90;;;;;;5069297;28;20256;-84
2022/04/06 07:11:15;;;;;;;20.60;12.03;;;8.20;99.90;;;;;;5062611;28;20227;-85
2022/04/06 07:13:42;;;;;;;21.27;12.27;;;8.20;99.90;;;;;;5068083;28;20224;-84
2022/04/06 07:16:10;;;;;;;22.03;12.63;;;8.20;99.90;;;;;;5068513;28;20235;-85
2022/04/06 07:18:37;;;;;;;23.70;13.20;;;8.20;99.90;;;;;;5068604;28;20242;-85
2022/04/06 07:21:04;;;;;;;22.13;13.13;;;8.20;99.90;;;;;;5067923;28;20233;-84
2022/04/06 07:23:33;;;;;;;21.67;13.80;;;8.20;99.90;;;;;;5067144;28;20318;-84
2022/04/06 07:26:00;;;;;;;22.30;13.10;;;8.30;99.90;;;;;;5068354;28;20610;-84
2022/04/06 07:28:27;;;;;;;20.23;13.03;;;8.40;99.90;;;;;;5085147;28;20264;-84
2022/04/06 07:30:53;;;;;;;20.43;13.00;;;8.40;99.90;;;;;;5083724;28;20249;-85
2022/04/06 07:33:20;;;;;;;19.63;13.80;;;8.50;99.90;;;;;;5062639;28;20228;-85
2022/04/06 07:35:47;;;;;;;19.73;13.57;;;8.50;99.90;;;;;;5084295;28;20712;-86
2022/04/06 07:38:14;;;;;;;17.67;12.50;;;8.50;99.90;;;;;;5083763;28;20851;-84
2022/04/06 07:40:42;;;;;;;20.80;13.17;;;8.50;99.90;;;;;;5086699;28;20261;-83
2022/04/06 07:43:10;;;;;;;16.63;12.17;;;8.60;99.90;;;;;;5085577;28;20221;-85
2022/04/06 07:45:37;;;;;;;18.27;12.80;;;8.60;99.90;;;;;;5088184;28;20235;-85
2022/04/06 07:48:05;;;;;;;17.97;11.60;;;8.60;99.90;;;;;;5088403;28;20301;-84
2022/04/06 07:50:32;;;;;;;16.70;12.67;;;8.60;99.90;;;;;;5089871;28;20233;-85
2022/04/06 07:52:59;;;;;;;20.23;12.73;;;8.60;99.90;;;;;;5071169;28;20310;-86
2022/04/06 07:55:26;;;;;;;17.40;13.30;;;8.60;99.90;;;;;;5089625;28;20721;-85
2022/04/06 07:57:54;;;;;;;21.17;12.70;;;8.60;99.90;;;;;;5073982;28;20309;-86
2022/04/06 08:00:21;;;;;;;20.73;12.80;;;8.60;99.90;;;;;;5074346;28;20225;-87
2022/04/06 08:02:50;;;;;;;21.23;13.73;;;8.60;99.90;;;;;;5072797;28;20239;-85
2022/04/06 08:05:18;;;;;;;21.03;13.07;;;8.60;99.90;;;;;;5093709;28;20269;-85
2022/04/06 08:07:48;;;;;;;21.63;12.93;;;8.50;99.90;;;;;;5094004;28;20610;-85
2022/04/06 08:10:16;;;;;;;17.97;12.40;;;8.50;99.90;;;;;;5077246;28;20861;-85
2022/04/06 08:12:43;;;;;;;24.27;14.07;;;8.50;99.90;;;;;;5070256;28;20233;-86
2022/04/06 08:15:12;;;;;;;21.83;13.67;;;8.50;99.90;;;;;;5091584;28;20221;-85
2022/04/06 08:17:41;;;;;;;20.87;13.47;;;8.50;99.90;;;;;;5075474;28;20232;-84
2022/04/06 08:20:11;;;;;;;21.97;13.77;;;8.50;99.90;;;;;;5089579;28;20234;-85
2022/04/06 08:22:38;;;;;;;21.63;13.47;;;8.50;99.90;;;;;;5072620;28;20236;-85
2022/04/06 08:25:06;;;;;;;20.67;13.83;;;8.50;99.90;;;;;;5072676;28;20234;-85
2022/04/06 08:27:36;;;;;;;19.97;12.77;;;8.50;99.90;;;;;;5077688;28;20230;-85
2022/04/06 08:30:04;;;;;;;19.17;13.10;;;8.50;99.90;;;;;;5089051;28;20232;-85
2022/04/06 08:32:32;;;;;;;21.17;13.67;;;8.60;99.90;;;;;;5071971;28;20773;-85
2022/04/06 08:34:58;;;;;;;21.67;13.73;;;8.50;99.90;;;;;;5066414;28;20728;-85
2022/04/06 08:37:25;;;;;;;20.17;13.43;;;8.60;99.90;;;;;;5088011;28;21111;-85
2022/04/06 08:39:52;;;;;;;22.03;13.33;;;8.60;99.90;;;;;;5069602;28;20769;-86
2022/04/06 08:42:19;;;;;;;22.17;13.37;;;8.50;99.90;;;;;;5071265;28;20309;-85
2022/04/06 08:44:46;;;;;;;23.10;13.67;;;8.60;99.90;;;;;;5067604;28;20733;-85
2022/04/06 08:47:13;;;;;;;17.60;12.07;;;8.70;99.90;;;;;;5073722;28;20286;-86
2022/04/06 08:49:43;;;;;;;16.77;12.90;;;8.70;99.90;;;;;;5062403;28;20586;-85
2022/04/06 08:52:11;;;;;;;21.80;12.90;;;8.70;99.90;;;;;;5072642;28;20232;-85
2022/04/06 08:54:38;;;;;;;19.30;12.93;;;8.70;99.90;;;;;;5068706;28;20229;-85
2022/04/06 08:57:05;;;;;;;19.53;12.40;;;8.80;99.90;;;;;;5074441;28;20234;-85
2022/04/06 08:59:32;;;;;;;17.10;12.07;;;8.80;99.90;;;;;;5074405;28;20229;-85
2022/04/06 09:01:59;;;;;;;17.70;11.17;;;8.80;99.90;;;;;;5084548;28;20237;-85
2022/04/06 09:04:28;;;;;;;17.03;11.87;;;8.80;99.90;;;;;;5073116;28;20264;-85
2022/04/06 09:07:07;;;;;;;16.90;10.87;;;8.80;99.90;;;;;;5091755;28;20288;-85
2022/04/06 09:09:36;;;;;;;15.53;10.30;;;8.90;99.90;;;;;;5072095;28;20285;-87
2022/04/06 09:12:08;;;;;;;17.07;11.23;;;8.90;99.90;;;;;;5091541;28;20597;-85
2022/04/06 09:14:35;;;;;;;16.70;10.63;;;8.90;99.90;;;;;;5076373;28;20643;-85
2022/04/06 09:17:03;;;;;;;14.37;10.57;;;8.90;99.90;;;;;;5067273;28;20230;-84
2022/04/06 09:19:30;;;;;;;14.40;10.40;;;8.90;99.90;;;;;;5074546;28;21081;-85
2022/04/06 09:21:58;;;;;;;17.07;11.07;;;8.90;99.90;;;;;;5072006;28;20351;-86
2022/04/06 09:24:27;;;;;;;14.53;9.87;;;8.90;99.90;;;;;;5072857;28;20283;-87
2022/04/06 09:26:58;;;;;;;15.30;10.37;;;8.90;99.90;;;;;;5093075;28;20643;-85
2022/04/06 09:29:26;;;;;;;15.20;10.20;;;9.00;99.90;;;;;;5073351;28;20229;-86
2022/04/06 09:31:53;;;;;;;17.00;9.60;;;9.00;99.90;;;;;;5095037;28;20229;-85
2022/04/06 09:34:22;;;;;;;16.53;9.33;;;9.00;99.90;;;;;;5093580;28;20212;-89
2022/04/06 09:36:56;;;;;;;14.27;9.63;;;9.00;99.90;;;;;;5093500;28;20221;-85
2022/04/06 09:39:46;;;;;;;21.97;10.23;;;9.00;99.90;;;;;;5092958;28;20224;-86
2022/04/06 09:42:21;;;;;;;17.03;9.67;;;9.00;99.90;;;;;;5091622;28;20240;-91
2022/04/06 09:47:42;;;;;;;14.80;9.00;;;9.00;99.90;;;;;;5090350;28;20308;-86
2022/04/06 09:50:19;;;;;;;18.23;9.40;;;9.00;99.90;;;;;;5073244;28;20225;-88
2022/04/06 09:52:47;;;;;;;13.40;8.93;;;9.00;99.90;;;;;;5076116;28;21064;-87
2022/04/06 09:55:16;;;;;;;11.37;8.50;;;9.00;99.90;;;;;;5076241;28;20220;-86
2022/04/06 09:57:47;;;;;;;14.87;8.77;;;9.00;99.90;;;;;;5074242;28;20236;-87
2022/04/06 10:00:19;;;;;;;11.97;8.17;;;9.00;99.90;;;;;;5076029;28;20229;-87
2022/04/06 10:02:48;;;;;;;13.50;8.43;;;9.00;99.90;;;;;;5076877;28;20254;-86
2022/04/06 10:05:18;;;;;;;13.67;8.63;;;9.00;99.90;;;;;;5077743;28;20270;-88
2022/04/06 10:07:46;;;;;;;12.87;8.00;;;9.00;99.90;;;;;;5086118;28;20725;-88
2022/04/06 10:10:13;;;;;;;10.63;7.57;;;9.00;99.90;;;;;;5077425;28;20228;-80
2022/04/06 10:12:42;;;;;;;12.47;7.67;;;9.00;99.90;;;;;;5088228;28;20255;-83
2022/04/06 10:15:09;;;;;;;11.53;7.27;;;9.00;99.90;;;;;;5084671;28;20721;-87
2022/04/06 10:17:36;;;;;;;10.60;6.77;;;9.00;99.90;;;;;;5087043;28;20241;-88
2022/04/06 10:20:10;;;;;;;13.50;7.80;;;8.90;99.90;;;;;;5071916;28;20217;-88
2022/04/06 10:22:45;;;;;;;14.87;6.80;;;8.90;99.90;;;;;;5082963;28;20242;-86
2022/04/06 10:25:17;;;;;;;13.43;7.40;;;8.80;99.90;;;;;;5071401;28;20293;-86
2022/04/06 10:27:52;;;;;;;13.03;6.70;;;8.80;99.90;;;;;;5089775;28;20243;-86
2022/04/06 10:30:23;;;;;;;7.53;6.37;;;8.80;99.90;;;;;;5069807;28;20294;-87
2022/04/06 10:32:51;;;;;;;11.33;7.13;;;8.80;99.90;;;;;;5089459;28;20638;-86
2022/04/06 10:35:24;;;;;;;13.13;7.00;;;8.80;99.90;;;;;;5070514;28;20221;-86
2022/04/06 10:37:54;;;;;;;9.20;6.90;;;8.80;99.90;;;;;;5089053;28;20668;-87
2022/04/06 10:40:22;;;;;;;9.87;7.30;;;8.80;99.90;;;;;;5069936;28;20248;-85
2022/04/06 10:42:50;;;;;;;12.03;6.90;;;8.80;99.90;;;;;;5066596;28;20240;-85
2022/04/06 10:45:36;;;;;;;10.43;7.00;;;8.80;99.90;;;;;;5070085;28;20229;-86
2022/04/06 10:48:13;;;;;;;15.30;6.40;;;8.80;99.90;;;;;;5088470;28;20228;-86
2022/04/06 10:50:40;;;;;;;9.50;6.13;;;8.80;99.90;;;;;;5088612;28;20250;-87
2022/04/06 10:53:27;;;;;;;10.27;6.53;;;8.80;99.90;;;;;;5087516;28;20328;-89
2022/04/06 10:55:58;;;;;;;11.90;6.83;;;8.90;99.90;;;;;;5070332;28;20580;-86
2022/04/06 10:58:26;;;;;;;12.20;7.60;;;8.90;99.90;;;;;;5087501;28;20229;-88
2022/04/06 11:01:15;;;;;;;12.17;7.73;;;8.80;99.90;;;;;;5073177;28;20832;-87
2022/04/06 11:03:55;;;;;;;10.67;8.07;;;8.90;99.90;;;;;;5069702;28;20277;-86
2022/04/06 11:06:48;;;;;;;9.53;7.47;;;8.90;99.90;;;;;;5076179;28;20221;-87
2022/04/06 11:12:12;;;;;;;10.27;7.10;;;8.90;99.90;;;;;;5087757;28;20307;-86
2022/04/06 11:14:41;;;;;;;11.23;7.80;;;8.90;99.90;;;;;;5087367;28;20221;-86
2022/04/06 11:17:37;;;;;;;9.17;6.93;;;8.90;99.90;;;;;;5069930;28;21028;-87
2022/04/06 11:20:07;;;;;;;10.43;7.00;;;8.90;99.90;;;;;;5066250;28;20244;-85
2022/04/06 11:22:34;;;;;;;13.50;8.33;;;8.90;99.90;;;;;;5087605;28;20229;-86
2022/04/06 11:25:01;;;;;;;12.90;7.60;;;8.90;99.90;;;;;;5069678;28;20415;-86
2022/04/06 11:27:29;;;;;;;8.50;7.60;;;8.90;99.90;;;;;;5087339;28;20296;-88
2022/04/06 11:30:01;;;;;;;11.87;7.00;;;8.90;99.90;;;;;;5086734;28;20228;-87
2022/04/06 11:32:28;;;;;;;10.57;6.50;;;8.90;99.90;;;;;;5070454;28;21392;-87
2022/04/06 11:35:00;;;;;;;10.10;7.30;;;8.90;99.90;;;;;;5090007;28;20229;-86
2022/04/06 11:37:27;;;;;;;10.50;7.73;;;8.90;99.90;;;;;;5090824;28;20274;-86
2022/04/06 11:39:58;;;;;;;8.77;7.07;;;8.90;99.90;;;;;;5070794;28;20222;-86
2022/04/06 11:42:25;;;;;;;9.17;7.10;;;8.90;99.90;;;;;;5090366;28;20417;-86
2022/04/06 11:44:53;;;;;;;8.80;6.80;;;8.90;99.90;;;;;;5071368;28;20229;-86
2022/04/06 11:47:35;;;;;;;8.93;6.93;;;8.90;99.90;;;;;;5090475;28;20274;-86
2022/04/06 11:50:02;;;;;;;14.37;7.13;;;8.90;99.90;;;;;;5090826;28;20235;-87
2022/04/06 11:52:29;;;;;;;9.10;7.17;;;9.00;99.90;;;;;;5073649;28;20245;-85
2022/04/06 11:54:57;;;;;;;12.20;7.07;;;9.00;99.90;;;;;;5072149;28;20219;-86
2022/04/06 11:57:35;;;;;;;12.70;7.53;;;9.00;99.90;;;;;;5090979;28;20659;-87
2022/04/06 12:00:03;;;;;;;10.53;7.27;;;9.00;99.90;;;;;;5073415;28;20781;-86
2022/04/06 12:02:52;;;;;;;12.10;7.40;;;9.00;99.90;;;;;;5092320;28;20229;-87
2022/04/06 12:05:19;;;;;;;14.73;8.60;;;9.10;99.90;;;;;;5072675;28;20313;-86
2022/04/06 12:07:47;;;;;;;10.37;6.97;;;9.10;99.90;;;;;;5073593;28;21082;-86
2022/04/06 12:10:15;;;;;;;15.67;7.10;;;9.10;99.90;;;;;;5073152;28;20225;-86
2022/04/06 12:12:42;;;;;;;9.17;7.60;;;9.20;99.90;;;;;;5091786;28;20229;-86
2022/04/06 12:15:10;;;;;;;9.73;7.33;;;9.20;99.90;;;;;;5091501;28;20233;-85
2022/04/06 12:17:39;;;;;;;10.17;7.30;;;9.20;99.90;;;;;;5092736;28;20237;-87
2022/04/06 12:20:25;;;;;;;10.37;7.30;;;9.20;99.90;;;;;;5073694;28;20577;-85
2022/04/06 12:23:08;;;;;;;12.90;7.73;;;9.20;99.90;;;;;;5072348;28;20228;-86
2022/04/06 12:25:35;;;;;;;9.07;7.00;;;9.30;99.90;;;;;;5091605;28;20244;-85
2022/04/06 12:28:13;;;;;;;12.03;7.07;;;9.30;99.90;;;;;;5073359;28;20230;-85
2022/04/06 12:30:54;;;;;;;10.37;7.60;;;9.20;99.90;;;;;;5092303;28;20235;-85
2022/04/06 12:33:39;;;;;;;11.90;7.17;;;9.20;99.90;;;;;;5077357;28;20320;-85
2022/04/06 12:36:09;;;;;;;11.63;6.83;;;9.20;99.90;;;;;;5082423;28;20226;-86
2022/04/06 12:38:36;;;;;;;10.73;6.87;;;9.20;99.90;;;;;;5092096;28;20813;-86
2022/04/06 12:41:05;;;;;;;10.63;6.83;;;9.20;99.90;;;;;;5080526;28;20338;-88
2022/04/06 12:43:31;;;;;;;11.03;7.50;;;9.20;99.90;;;;;;5093581;28;20706;-85
2022/04/06 12:45:58;;;;;;;11.93;7.17;;;9.20;99.90;;;;;;5076211;28;20306;-87
2022/04/06 12:48:25;;;;;;;13.63;7.57;;;9.20;99.90;;;;;;5093813;28;20225;-85
2022/04/06 12:50:52;;;;;;;11.23;7.50;;;9.20;99.90;;;;;;5094004;28;20395;-85
2022/04/06 12:53:20;;;;;;;11.50;8.03;;;9.10;99.90;;;;;;5085989;28;20307;-87
2022/04/06 12:55:47;;;;;;;15.67;9.33;;;9.10;99.90;;;;;;5094807;28;20247;-86
2022/04/06 12:58:15;;;;;;;12.93;7.87;;;9.20;99.90;;;;;;5088522;28;20256;-86
2022/04/06 13:00:42;;;;;;;11.17;7.67;;;9.20;99.90;;;;;;5077146;28;20246;-85
2022/04/06 13:03:09;;;;;;;13.77;7.67;;;9.20;99.90;;;;;;5071857;28;20225;-85
2022/04/06 13:05:36;;;;;;;12.53;7.40;;;9.20;99.90;;;;;;5084099;28;20727;-86